Time;durP1;ratioP1;P1;durP2;ratioP2;P2;SDS_P1;SDS_P2;PMS_P1;PMS_P2;Temp;Humidity;BMP_temperature;BMP_pressure;BME280_temperature;BME280_humidity;BME280_pressure;Samples;Min_cycle;Max_cycle;Signal;HPM_P1;HPM_P2
2021/09/20 00:00:23;;;;;;;;;;;;;;;17.77;47.29;101594.50;5014626;28;97021;-74
2021/09/20 00:02:51;;;;;;;;;;;;;;;17.92;47.64;101583.00;5014388;28;96873;-75
2021/09/20 00:05:17;;;;;;;;;;;;;;;17.36;47.64;101590.38;5013020;28;99302;-76
2021/09/20 00:07:43;;;;;;;;;;;;;;;17.48;48.04;101587.06;5013160;28;98114;-75
2021/09/20 00:10:11;;;;;;;;;;;;;;;17.44;47.30;101590.84;5014674;28;97172;-75
2021/09/20 00:12:37;;;;;;;;;;;;;;;17.35;46.75;101597.53;5014044;28;97376;-76
2021/09/20 00:15:04;;;;;;;;;;;;;;;17.17;48.16;101594.91;5013417;28;99128;-76
2021/09/20 00:17:30;;;;;;;;;;;;;;;16.85;47.46;101586.66;5014903;28;99314;-76
2021/09/20 00:19:58;;;;;;;;;;;;;;;16.53;48.10;101587.31;5014013;28;96723;-75
2021/09/20 00:22:24;;;;;;;;;;;;;;;16.53;47.54;101596.19;5014985;28;97143;-75
2021/09/20 00:24:50;;;;;;;;;;;;;;;16.39;48.20;101595.94;5013311;28;98865;-75
2021/09/20 00:27:17;;;;;;;;;;;;;;;17.09;46.93;101595.28;5013896;28;99182;-74
2021/09/20 00:29:45;;;;;;;;;;;;;;;17.30;47.00;101594.22;5013602;28;96837;-75
2021/09/20 00:32:11;;;;;;;;;;;;;;;17.23;47.19;101587.44;5013912;28;96865;-74
2021/09/20 00:34:38;;;;;;;;;;;;;;;16.74;48.35;101586.28;5013642;28;98188;-74
2021/09/20 00:37:06;;;;;;;;;;;;;;;16.76;48.84;101592.44;5013980;28;99061;-75
2021/09/20 00:39:32;;;;;;;;;;;;;;;17.11;48.81;101591.59;5014205;28;97199;-75
2021/09/20 00:41:58;;;;;;;;;;;;;;;17.07;48.68;101586.47;5020416;28;97286;-75
2021/09/20 00:44:24;;;;;;;;;;;;;;;16.59;49.68;101595.88;5013714;28;99137;-75
2021/09/20 00:46:51;;;;;;;;;;;;;;;16.51;49.81;101597.16;5013857;28;98781;-75
2021/09/20 00:49:17;;;;;;;;;;;;;;;16.39;50.70;101601.28;5013254;28;97190;-76
2021/09/20 00:51:43;;;;;;;;;;;;;;;15.78;52.65;101592.47;5013639;28;96751;-76
2021/09/20 00:54:11;;;;;;;;;;;;;;;16.47;50.81;101593.78;5014263;28;98934;-75
2021/09/20 00:56:37;;;;;;;;;;;;;;;16.69;50.92;101596.34;5013063;28;97873;-75
2021/09/20 00:59:04;;;;;;;;;;;;;;;17.05;49.48;101604.38;5013846;28;96675;-75
2021/09/20 01:01:30;;;;;;;;;;;;;;;17.03;48.92;101590.25;5013027;28;96809;-75
2021/09/20 01:03:56;;;;;;;;;;;;;;;16.64;50.01;101599.22;5014043;28;99282;-76
2021/09/20 01:06:25;;;;;;;;;;;;;;;16.72;49.96;101601.53;5013542;28;99556;-75
2021/09/20 01:08:51;;;;;;;;;;;;;;;17.18;48.85;101594.84;5014272;28;96956;-75
2021/09/20 01:11:19;;;;;;;;;;;;;;;17.33;48.88;101601.19;5016856;28;96983;-75
2021/09/20 01:13:45;;;;;;;;;;;;;;;17.29;48.02;101600.50;5015641;28;98898;-75
2021/09/20 01:16:11;;;;;;;;;;;;;;;17.06;48.95;101603.44;5016620;28;99097;-75
2021/09/20 01:18:38;;;;;;;;;;;;;;;17.52;47.95;101602.03;5017982;28;96612;-74
2021/09/20 01:21:04;;;;;;;;;;;;;;;17.35;47.72;101607.34;5016515;28;96801;-75
2021/09/20 01:23:32;;;;;;;;;;;;;;;17.35;48.05;101613.53;5016969;28;98915;-75
2021/09/20 01:25:58;;;;;;;;;;;;;;;16.38;49.45;101607.53;5016573;28;98855;-75
2021/09/20 01:28:25;;;;;;;;;;;;;;;16.77;49.24;101606.66;5017406;28;96826;-74
2021/09/20 01:30:51;;;;;;;;;;;;;;;17.02;49.09;101608.06;5017546;28;96985;-74
2021/09/20 01:33:17;;;;;;;;;;;;;;;17.18;48.68;101610.84;5016771;28;99108;-75
2021/09/20 01:35:51;;;;;;;;;;;;;;;16.71;49.33;101611.34;5016002;28;99248;-75
2021/09/20 01:38:17;;;;;;;;;;;;;;;17.21;48.41;101601.81;5016577;28;96639;-75
2021/09/20 01:40:46;;;;;;;;;;;;;;;17.41;48.32;101615.03;5016888;28;96846;-75
2021/09/20 01:43:12;;;;;;;;;;;;;;;17.21;47.99;101612.50;5027542;28;98853;-75
2021/09/20 01:45:38;;;;;;;;;;;;;;;16.78;49.31;101605.72;5030110;27;97673;-75
2021/09/20 01:48:05;;;;;;;;;;;;;;;17.01;49.31;101611.66;5017056;28;96803;-75
2021/09/20 01:50:31;;;;;;;;;;;;;;;17.52;47.44;101612.72;5014523;28;96942;-75
2021/09/20 01:52:58;;;;;;;;;;;;;;;16.58;49.28;101602.16;5016388;28;98886;-75
2021/09/20 01:55:24;;;;;;;;;;;;;;;17.29;47.90;101607.66;5016169;28;99159;-75
2021/09/20 01:57:52;;;;;;;;;;;;;;;17.05;48.37;101604.38;5017088;28;96727;-76
2021/09/20 02:00:19;;;;;;;;;;;;;;;17.01;48.39;101606.31;5016162;28;96823;-75
2021/09/20 02:02:45;;;;;;;;;;;;;;;16.90;49.17;101603.31;5015884;28;99206;-75
2021/09/20 02:05:12;;;;;;;;;;;;;;;17.07;49.24;101605.16;5015955;28;98784;-75
2021/09/20 02:07:41;;;;;;;;;;;;;;;16.59;49.77;101603.88;5016953;28;96760;-76
2021/09/20 02:10:08;;;;;;;;;;;;;;;16.06;51.07;101609.00;5016280;28;96756;-74
2021/09/20 02:12:34;;;;;;;;;;;;;;;16.33;50.54;101610.44;5015187;28;98942;-74
2021/09/20 02:15:02;;;;;;;;;;;;;;;16.88;49.92;101605.19;5015064;28;99354;-75
2021/09/20 02:17:28;;;;;;;;;;;;;;;16.96;49.44;101604.81;5016732;28;96706;-75
2021/09/20 02:19:55;;;;;;;;;;;;;;;16.30;50.77;101604.34;5016493;28;96753;-75
2021/09/20 02:22:21;;;;;;;;;;;;;;;16.56;50.10;101605.81;5015837;28;98927;-74
2021/09/20 02:24:47;;;;;;;;;;;;;;;16.89;49.31;101609.59;5015345;28;98938;-74
2021/09/20 02:27:13;;;;;;;;;;;;;;;16.48;50.44;101599.97;5015762;28;96651;-76
2021/09/20 02:29:40;;;;;;;;;;;;;;;16.21;51.15;101610.97;5015855;28;98482;-75
2021/09/20 02:32:08;;;;;;;;;;;;;;;16.35;51.00;101603.19;5016074;28;100766;-75
2021/09/20 02:34:34;;;;;;;;;;;;;;;16.53;50.72;101608.66;5015360;28;99171;-74
2021/09/20 02:37:01;;;;;;;;;;;;;;;16.61;50.33;101603.81;5015753;28;96946;-74
2021/09/20 02:39:27;;;;;;;;;;;;;;;16.50;50.61;101596.31;5015751;28;96795;-74
2021/09/20 02:41:53;;;;;;;;;;;;;;;16.76;49.89;101607.56;5015624;28;99275;-75
2021/09/20 02:44:20;;;;;;;;;;;;;;;16.72;49.79;101609.53;5036818;27;97996;-75
2021/09/20 02:46:48;;;;;;;;;;;;;;;16.30;50.72;101607.88;5019765;27;98573;-76
2021/09/20 02:49:16;;;;;;;;;;;;;;;16.84;49.70;101602.75;5016462;28;96787;-75
2021/09/20 02:51:42;;;;;;;;;;;;;;;16.24;51.21;101602.84;5000862;28;99163;-75
2021/09/20 02:54:08;;;;;;;;;;;;;;;16.35;50.97;101613.88;4996110;28;97632;-74
2021/09/20 02:56:35;;;;;;;;;;;;;;;16.60;50.90;101604.78;5008926;28;96932;-74
2021/09/20 02:59:01;;;;;;;;;;;;;;;17.18;49.14;101605.53;5016259;28;96843;-75
2021/09/20 03:01:27;;;;;;;;;;;;;;;17.02;49.15;101602.72;5015214;28;99020;-74
2021/09/20 03:03:53;;;;;;;;;;;;;;;17.03;48.88;101596.44;5016061;28;98918;-76
2021/09/20 03:06:21;;;;;;;;;;;;;;;16.61;50.08;101595.81;5016303;28;96880;-74
2021/09/20 03:08:47;;;;;;;;;;;;;;;17.03;49.73;101595.56;5017637;28;97307;-76
2021/09/20 03:11:14;;;;;;;;;;;;;;;17.56;47.99;101592.91;5021255;28;99167;-75
2021/09/20 03:13:40;;;;;;;;;;;;;;;17.63;47.39;101596.16;5021298;28;99228;-74
2021/09/20 03:16:06;;;;;;;;;;;;;;;17.54;47.20;101602.78;5014929;28;96929;-75
2021/09/20 03:18:32;;;;;;;;;;;;;;;17.45;47.84;101598.81;5016693;28;96828;-75
2021/09/20 03:20:59;;;;;;;;;;;;;;;17.03;47.95;101607.13;5015835;28;99267;-74
2021/09/20 03:23:28;;;;;;;;;;;;;;;16.41;49.91;101615.38;5015678;28;98111;-75
2021/09/20 03:25:55;;;;;;;;;;;;;;;16.13;51.10;101617.59;5018638;28;97228;-77
2021/09/20 03:28:21;;;;;;;;;;;;;;;16.43;50.85;101618.84;5036198;28;96605;-75
2021/09/20 03:30:50;;;;;;;;;;;;;;;17.13;48.62;101615.56;5015758;28;99370;-74
2021/09/20 03:33:17;;;;;;;;;;;;;;;17.23;48.49;101627.50;5018363;28;97706;-73
2021/09/20 03:35:43;;;;;;;;;;;;;;;16.95;49.82;101619.09;5033742;28;97368;-73
2021/09/20 03:38:10;;;;;;;;;;;;;;;17.27;48.04;101621.06;5035499;28;96773;-74
2021/09/20 03:40:37;;;;;;;;;;;;;;;16.69;49.43;101617.69;5033068;28;98889;-75
2021/09/20 03:43:04;;;;;;;;;;;;;;;16.67;49.62;101617.75;5045082;28;98795;-74
2021/09/20 03:45:30;;;;;;;;;;;;;;;16.51;50.01;101626.50;5037038;28;96860;-77
2021/09/20 03:47:56;;;;;;;;;;;;;;;17.05;49.10;101626.63;5035910;28;96575;-74
2021/09/20 03:50:22;;;;;;;;;;;;;;;17.16;49.13;101635.91;5030678;28;97633;-75
2021/09/20 03:52:49;;;;;;;;;;;;;;;16.91;49.37;101638.88;5034879;28;97705;-74
2021/09/20 03:55:15;;;;;;;;;;;;;;;17.16;49.68;101635.91;5030796;28;97853;-75
2021/09/20 03:57:43;;;;;;;;;;;;;;;16.77;49.29;101634.19;5035167;28;96565;-73
2021/09/20 04:00:10;;;;;;;;;;;;;;;17.12;49.17;101629.84;5034160;28;99275;-74
2021/09/20 04:02:37;;;;;;;;;;;;;;;17.36;47.65;101623.28;5017890;28;98173;-75
2021/09/20 04:05:03;;;;;;;;;;;;;;;17.16;48.47;101627.88;5015990;28;96751;-74
2021/09/20 04:07:29;;;;;;;;;;;;;;;17.20;48.19;101624.97;5015189;28;96857;-75
2021/09/20 04:09:56;;;;;;;;;;;;;;;17.35;48.56;101634.06;5015327;28;98867;-76
2021/09/20 04:12:23;;;;;;;;;;;;;;;17.34;48.65;101643.00;5014629;28;98828;-75
2021/09/20 04:14:51;;;;;;;;;;;;;;;17.16;48.13;101643.91;5015431;28;96755;-75
2021/09/20 04:17:17;;;;;;;;;;;;;;;16.81;49.27;101646.44;4999364;28;96933;-75
2021/09/20 04:19:44;;;;;;;;;;;;;;;17.34;48.97;101648.34;4994885;28;99331;-76
2021/09/20 04:22:10;;;;;;;;;;;;;;;17.18;48.66;101658.06;5009416;28;98684;-76
2021/09/20 04:24:36;;;;;;;;;;;;;;;16.70;49.52;101654.09;5014655;28;97956;-75
2021/09/20 04:27:03;;;;;;;;;;;;;;;16.88;49.22;101657.72;5014666;28;97150;-75
2021/09/20 04:29:29;;;;;;;;;;;;;;;17.16;48.56;101668.81;5014385;28;99861;-76
2021/09/20 04:31:56;;;;;;;;;;;;;;;16.50;50.24;101659.47;5013894;28;98935;-74
2021/09/20 04:34:25;;;;;;;;;;;;;;;16.65;50.18;101654.34;5014819;28;96755;-75
2021/09/20 04:36:51;;;;;;;;;;;;;;;16.64;50.21;101657.06;5013080;28;96881;-74
2021/09/20 04:39:17;;;;;;;;;;;;;;;16.72;50.74;101660.25;5014466;28;101525;-75
2021/09/20 04:41:44;;;;;;;;;;;;;;;17.03;49.58;101665.88;5013638;28;98900;-74
2021/09/20 04:44:10;;;;;;;;;;;;;;;17.22;49.67;101665.84;5023430;28;96845;-74
2021/09/20 04:46:36;;;;;;;;;;;;;;;17.31;49.32;101667.22;5013851;28;97316;-75
2021/09/20 04:49:04;;;;;;;;;;;;;;;16.87;50.06;101669.34;5014231;28;98904;-74
2021/09/20 04:51:30;;;;;;;;;;;;;;;17.12;49.83;101662.78;5014566;28;99661;-75
2021/09/20 04:53:57;;;;;;;;;;;;;;;17.08;49.76;101671.84;5014311;28;96803;-75
2021/09/20 04:56:23;;;;;;;;;;;;;;;16.97;50.21;101671.50;5014052;28;96800;-74
2021/09/20 04:58:50;;;;;;;;;;;;;;;16.64;51.24;101673.06;5015084;28;98825;-75
2021/09/20 05:01:16;;;;;;;;;;;;;;;16.62;51.21;101674.94;5020866;28;98570;-75
2021/09/20 05:03:42;;;;;;;;;;;;;;;17.06;49.99;101686.22;5015705;28;96686;-75
2021/09/20 05:06:13;;;;;;;;;;;;;;;17.16;50.75;101679.50;5005675;28;96807;-75
2021/09/20 05:08:39;;;;;;;;;;;;;;;17.12;50.04;101678.78;4994849;28;99195;-74
2021/09/20 05:11:05;;;;;;;;;;;;;;;16.83;50.33;101681.97;5002768;28;97658;-74
2021/09/20 05:13:31;;;;;;;;;;;;;;;17.18;49.41;101682.09;5014209;28;96767;-75
2021/09/20 05:15:58;;;;;;;;;;;;;;;17.09;50.13;101681.59;5013514;28;96800;-74
2021/09/20 05:18:24;;;;;;;;;;;;;;;17.40;49.29;101685.44;5013698;28;98984;-74
2021/09/20 05:20:53;;;;;;;;;;;;;;;17.45;48.92;101678.09;5012965;28;99133;-74
2021/09/20 05:23:20;;;;;;;;;;;;;;;17.03;50.06;101676.56;5014571;28;97179;-74
2021/09/20 05:25:46;;;;;;;;;;;;;;;17.44;49.38;101684.38;5013930;28;96805;-75
2021/09/20 05:28:13;;;;;;;;;;;;;;;17.09;50.49;101686.06;5014272;28;98951;-74
2021/09/20 05:30:39;;;;;;;;;;;;;;;17.27;49.77;101685.16;5012039;28;98104;-74
2021/09/20 05:33:05;;;;;;;;;;;;;;;17.31;49.42;101693.91;5008140;28;96708;-76
2021/09/20 05:35:32;;;;;;;;;;;;;;;17.02;50.04;101690.84;4994700;28;96795;-76
2021/09/20 05:37:58;;;;;;;;;;;;;;;17.38;48.91;101700.69;4994920;28;97993;-76
2021/09/20 05:40:26;;;;;;;;;;;;;;;17.49;49.27;101701.91;4993819;28;98891;-75
2021/09/20 05:42:56;;;;;;;;;;;;;;;17.26;49.24;101698.63;5003067;28;96860;-75
2021/09/20 05:45:23;;;;;;;;;;;;;;;17.12;49.86;101707.28;5008091;28;96823;-75
2021/09/20 05:47:50;;;;;;;;;;;;;;;17.39;49.29;101705.09;4991597;28;99175;-75
2021/09/20 05:50:17;;;;;;;;;;;;;;;17.24;49.35;101705.84;4989306;28;102659;-76
2021/09/20 05:52:43;;;;;;;;;;;;;;;17.13;50.18;101701.84;4987212;28;97614;-76
2021/09/20 05:55:11;;;;;;;;;;;;;;;17.64;48.28;101703.00;4993518;28;96902;-75
2021/09/20 05:57:39;;;;;;;;;;;;;;;17.09;49.53;101705.63;4991353;28;102511;-74
2021/09/20 06:00:06;;;;;;;;;;;;;;;17.41;48.77;101706.75;4997024;28;97980;-76
2021/09/20 06:02:32;;;;;;;;;;;;;;;17.65;48.38;101712.75;4994686;28;96982;-74
2021/09/20 06:04:58;;;;;;;;;;;;;;;17.79;48.09;101704.00;4998265;28;97168;-75
2021/09/20 06:07:25;;;;;;;;;;;;;;;17.85;47.79;101711.75;4995344;28;99185;-75
2021/09/20 06:09:51;;;;;;;;;;;;;;;17.87;47.69;101708.03;4995085;28;98562;-75
2021/09/20 06:12:19;;;;;;;;;;;;;;;17.84;47.67;101708.22;4994858;28;98660;-75
2021/09/20 06:14:47;;;;;;;;;;;;;;;17.88;48.10;101699.06;4996762;28;96813;-75
2021/09/20 06:17:13;;;;;;;;;;;;;;;17.71;47.76;101695.53;4995985;28;99232;-77
2021/09/20 06:19:40;;;;;;;;;;;;;;;17.53;48.43;101705.28;4995631;28;97651;-75
2021/09/20 06:22:06;;;;;;;;;;;;;;;17.87;47.48;101707.16;4993477;28;97467;-75
2021/09/20 06:24:32;;;;;;;;;;;;;;;17.35;48.63;101709.72;4994754;28;97030;-74
2021/09/20 06:26:59;;;;;;;;;;;;;;;17.96;46.95;101711.19;4998476;28;99027;-74
2021/09/20 06:29:25;;;;;;;;;;;;;;;17.98;47.45;101714.66;4995151;28;98953;-74
2021/09/20 06:31:53;;;;;;;;;;;;;;;17.89;47.57;101711.50;4993787;28;97063;-75
2021/09/20 06:34:20;;;;;;;;;;;;;;;18.17;46.69;101712.78;5010016;28;97409;-75
2021/09/20 06:36:46;;;;;;;;;;;;;;;18.21;46.63;101717.88;5016249;28;98937;-77
2021/09/20 06:39:12;;;;;;;;;;;;;;;18.15;46.90;101720.00;5021941;28;99357;-78
2021/09/20 06:41:38;;;;;;;;;;;;;;;18.20;47.03;101716.13;5013291;28;97619;-76
2021/09/20 06:44:06;;;;;;;;;;;;;;;18.52;46.38;101713.56;5013675;28;97530;-74
2021/09/20 06:46:35;;;;;;;;;;;;;;;18.54;46.03;101715.22;5015813;28;98985;-74
2021/09/20 06:49:03;;;;;;;;;;;;;;;18.42;46.50;101715.91;5021596;28;99224;-77
2021/09/20 06:51:29;;;;;;;;;;;;;;;18.75;45.09;101726.66;5017953;28;97412;-75
2021/09/20 06:53:55;;;;;;;;;;;;;;;18.91;45.15;101722.16;5013091;28;96777;-75
2021/09/20 06:56:22;;;;;;;;;;;;;;;18.68;45.02;101718.06;5015018;28;100657;-75
2021/09/20 06:58:51;;;;;;;;;;;;;;;18.43;45.39;101720.31;5022381;28;98928;-75
2021/09/20 07:01:18;;;;;;;;;;;;;;;18.64;45.21;101726.38;5020932;28;96846;-75
2021/09/20 07:03:44;;;;;;;;;;;;;;;18.82;44.63;101722.69;5017816;28;97094;-74
2021/09/20 07:06:13;;;;;;;;;;;;;;;19.08;43.89;101722.13;5016207;28;98931;-76
2021/09/20 07:08:39;;;;;;;;;;;;;;;18.56;45.37;101724.09;5017275;28;97868;-76
2021/09/20 07:11:06;;;;;;;;;;;;;;;18.81;44.73;101728.13;5014429;28;97683;-76
2021/09/20 07:13:32;;;;;;;;;;;;;;;18.82;44.35;101729.84;5015342;28;98730;-75
2021/09/20 07:15:58;;;;;;;;;;;;;;;18.62;44.28;101734.47;5014145;28;99092;-75
2021/09/20 07:18:25;;;;;;;;;;;;;;;18.77;43.77;101731.91;5015504;28;99607;-75
2021/09/20 07:20:51;;;;;;;;;;;;;;;18.49;44.56;101733.34;5013580;28;96807;-76
2021/09/20 07:23:23;;;;;;;;;;;;;;;18.79;44.09;101732.69;5016421;28;96882;-75
2021/09/20 07:25:49;;;;;;;;;;;;;;;18.78;43.76;101738.97;5014986;28;100908;-76
2021/09/20 07:28:15;;;;;;;;;;;;;;;18.87;43.51;101744.72;5008365;28;99031;-75
2021/09/20 07:30:43;;;;;;;;;;;;;;;19.03;43.07;101748.28;5016347;28;96855;-74
2021/09/20 07:33:10;;;;;;;;;;;;;;;19.11;43.02;101745.19;4999812;28;96813;-75
2021/09/20 07:35:37;;;;;;;;;;;;;;;19.01;43.61;101752.00;4995742;28;99361;-75
2021/09/20 07:38:04;;;;;;;;;;;;;;;19.11;42.93;101747.84;4995684;28;98828;-75
2021/09/20 07:40:31;;;;;;;;;;;;;;;19.03;43.84;101752.78;4995355;28;96723;-75
2021/09/20 07:42:58;;;;;;;;;;;;;;;19.25;42.40;101752.44;5006183;28;96820;-75
2021/09/20 07:45:25;;;;;;;;;;;;;;;19.23;42.56;101749.84;5003273;28;101026;-75
2021/09/20 07:47:52;;;;;;;;;;;;;;;19.35;42.64;101756.38;4997776;28;99505;-76
2021/09/20 07:50:19;;;;;;;;;;;;;;;18.95;43.33;101763.06;4996766;28;96857;-76
2021/09/20 07:52:46;;;;;;;;;;;;;;;18.59;44.07;101760.53;4994754;28;96892;-76
2021/09/20 07:55:12;;;;;;;;;;;;;;;18.86;43.73;101763.53;4994925;28;97677;-75
2021/09/20 07:57:40;;;;;;;;;;;;;;;19.68;42.20;101753.63;4994446;28;98590;-74
2021/09/20 08:00:07;;;;;;;;;;;;;;;19.92;41.16;101757.56;4994820;28;97177;-75
2021/09/20 08:02:33;;;;;;;;;;;;;;;18.97;43.26;101763.84;4977478;28;97085;-74
2021/09/20 08:04:59;;;;;;;;;;;;;;;19.29;42.92;101757.56;4988695;28;99173;-74
2021/09/20 08:07:26;;;;;;;;;;;;;;;19.77;41.58;101767.34;4994316;28;98981;-75
2021/09/20 08:09:52;;;;;;;;;;;;;;;20.10;41.25;101759.16;4994837;28;97311;-75
2021/09/20 08:12:21;;;;;;;;;;;;;;;20.30;40.62;101758.81;4994977;28;97758;-75
2021/09/20 08:14:50;;;;;;;;;;;;;;;19.79;41.68;101760.09;4996706;28;98019;-75
2021/09/20 08:17:18;;;;;;;;;;;;;;;19.45;41.03;101761.09;4998379;28;99295;-75
2021/09/20 08:19:44;;;;;;;;;;;;;;;19.11;41.79;101769.28;4995706;28;97622;-74
2021/09/20 08:22:10;;;;;;;;;;;;;;;20.11;40.20;101766.25;4994823;28;97076;-75
2021/09/20 08:24:37;;;;;;;;;;;;;;;19.78;40.74;101770.88;4994406;28;99085;-75
2021/09/20 08:27:03;;;;;;;;;;;;;;;18.70;43.16;101775.09;4994627;28;98999;-77
2021/09/20 08:29:30;;;;;;;;;;;;;;;19.74;40.75;101764.84;4994688;28;96858;-77
2021/09/20 08:31:57;;;;;;;;;;;;;;;19.38;41.94;101767.75;4994854;28;96864;-77
2021/09/20 08:34:24;;;;;;;;;;;;;;;20.13;40.01;101767.03;5004648;28;98164;-75
2021/09/20 08:36:50;;;;;;;;;;;;;;;19.76;41.01;101772.78;5007259;28;97730;-76
2021/09/20 08:39:16;;;;;;;;;;;;;;;19.40;41.32;101767.69;5007157;28;97289;-76
2021/09/20 08:41:43;;;;;;;;;;;;;;;18.57;43.10;101774.00;4997875;28;97458;-77
2021/09/20 08:44:10;;;;;;;;;;;;;;;19.56;41.71;101760.53;5010833;28;98929;-76
2021/09/20 08:46:37;;;;;;;;;;;;;;;20.17;40.15;101771.25;5009187;28;99676;-77
2021/09/20 08:49:05;;;;;;;;;;;;;;;20.22;40.38;101768.28;4998983;28;96745;-78
2021/09/20 08:51:32;;;;;;;;;;;;;;;20.39;39.87;101768.19;4996288;28;96840;-77
2021/09/20 08:53:58;;;;;;;;;;;;;;;20.55;39.50;101771.66;5008426;28;98914;-77
2021/09/20 08:56:25;;;;;;;;;;;;;;;19.83;40.46;101771.47;4996450;28;97759;-77
2021/09/20 08:58:51;;;;;;;;;;;;;;;20.71;39.04;101773.41;4994193;28;96827;-77
2021/09/20 09:01:17;;;;;;;;;;;;;;;20.46;38.78;101779.41;5007664;28;97938;-77
2021/09/20 09:03:44;;;;;;;;;;;;;;;20.13;38.63;101776.91;5006261;28;99411;-77
2021/09/20 09:06:11;;;;;;;;;;;;;;;20.54;38.07;101777.13;4995911;28;97771;-77
2021/09/20 09:08:38;;;;;;;;;;;;;;;20.35;38.13;101773.84;4997003;28;96998;-77
2021/09/20 09:11:07;;;;;;;;;;;;;;;20.14;38.09;101774.13;4995200;28;96933;-77
2021/09/20 09:13:36;;;;;;;;;;;;;;;20.78;36.43;101774.75;4995181;28;98839;-77
2021/09/20 09:16:12;;;;;;;;;;;;;;;20.27;36.92;101783.19;4997598;28;99264;-77
2021/09/20 09:18:53;;;;;;;;;;;;;;;20.55;36.51;101778.84;5004586;28;96828;-76
2021/09/20 09:21:21;;;;;;;;;;;;;;;20.57;36.88;101774.25;5003041;28;97097;-76
2021/09/20 09:23:58;;;;;;;;;;;;;;;21.28;34.97;101774.28;4997371;28;99000;-76
2021/09/20 09:26:24;;;;;;;;;;;;;;;20.27;36.12;101783.19;4996051;28;98862;-76
2021/09/20 09:28:53;;;;;;;;;;;;;;;20.35;36.36;101779.22;5016109;28;96863;-77
2021/09/20 09:31:19;;;;;;;;;;;;;;;21.29;35.17;101773.31;5015927;28;96504;-77
2021/09/20 09:33:45;;;;;;;;;;;;;;;20.85;36.43;101779.66;5026665;28;98233;-76
2021/09/20 09:36:14;;;;;;;;;;;;;;;21.45;35.40;101769.56;5030385;28;98776;-78
2021/09/20 09:38:56;;;;;;;;;;;;;;;21.04;35.46;101772.16;5031636;28;96853;-77
2021/09/20 09:41:31;;;;;;;;;;;;;;;20.89;35.44;101775.81;5033160;28;96688;-76
2021/09/20 09:44:02;;;;;;;;;;;;;;;21.39;34.62;101763.72;5036984;28;99135;-77
2021/09/20 09:46:28;;;;;;;;;;;;;;;21.73;34.50;101768.59;5034863;28;97714;-75
2021/09/20 09:48:55;;;;;;;;;;;;;;;22.01;34.00;101764.97;5033080;28;97390;-76
2021/09/20 09:51:21;;;;;;;;;;;;;;;22.15;33.53;101762.22;5022207;28;98648;-76
2021/09/20 09:53:48;;;;;;;;;;;;;;;22.53;32.78;101783.81;5027332;28;99056;-77
2021/09/20 09:56:19;;;;;;;;;;;;;;;22.28;33.57;101770.31;5030871;28;98811;-76
2021/09/20 09:58:57;;;;;;;;;;;;;;;21.78;34.44;101771.88;5027276;28;98985;-75
2021/09/20 10:01:28;;;;;;;;;;;;;;;20.91;35.74;101770.34;5020226;28;96897;-76
2021/09/20 10:04:05;;;;;;;;;;;;;;;21.58;34.61;101772.31;5026851;28;98092;-74
2021/09/20 10:06:35;;;;;;;;;;;;;;;21.74;34.74;101777.53;5016798;28;98841;-74
2021/09/20 10:09:01;;;;;;;;;;;;;;;21.21;35.30;101772.94;5011610;28;97173;-75
2021/09/20 10:11:28;;;;;;;;;;;;;;;21.12;34.70;101770.81;5010254;28;98522;-75
2021/09/20 10:13:55;;;;;;;;;;;;;;;20.79;35.58;101776.50;5010575;28;99304;-75
2021/09/20 10:16:21;;;;;;;;;;;;;;;21.10;34.72;101765.53;5006325;28;98941;-75
2021/09/20 10:18:48;;;;;;;;;;;;;;;20.46;36.38;101774.03;5011640;28;97176;-74
2021/09/20 10:21:14;;;;;;;;;;;;;;;20.19;37.84;101774.72;5010621;28;97201;-74
2021/09/20 10:23:41;;;;;;;;;;;;;;;21.11;34.58;101772.66;5008141;28;101065;-74
2021/09/20 10:26:07;;;;;;;;;;;;;;;21.72;33.26;101774.97;5009692;28;99183;-75
2021/09/20 10:28:34;;;;;;;;;;;;;;;21.76;33.60;101781.88;5015957;28;97846;-75
2021/09/20 10:31:02;;;;;;;;;;;;;;;21.82;34.21;101780.59;5010070;28;96978;-74
2021/09/20 10:33:28;;;;;;;;;;;;;;;21.64;34.30;101773.75;5011473;28;98054;-73
2021/09/20 10:35:55;;;;;;;;;;;;;;;21.79;34.60;101780.81;5011244;28;99169;-75
2021/09/20 10:38:26;;;;;;;;;;;;;;;21.07;36.56;101787.22;5011447;28;97828;-74
2021/09/20 10:41:06;;;;;;;;;;;;;;;21.56;35.69;101782.31;5011296;28;98970;-75
2021/09/20 10:43:32;;;;;;;;;;;;;;;21.43;36.15;101773.31;5011209;28;98908;-74
2021/09/20 10:45:59;;;;;;;;;;;;;;;21.33;36.50;101774.88;5009083;28;98699;-74
2021/09/20 10:48:31;;;;;;;;;;;;;;;21.14;36.58;101776.94;5011433;28;96922;-74
2021/09/20 10:51:00;;;;;;;;;;;;;;;20.34;37.43;101780.16;5008725;28;98860;-74
2021/09/20 10:53:32;;;;;;;;;;;;;;;20.15;37.58;101777.69;5010476;28;98819;-75
2021/09/20 10:56:15;;;;;;;;;;;;;;;19.86;38.43;101782.91;5015066;28;99177;-75
2021/09/20 10:58:42;;;;;;;;;;;;;;;20.51;38.10;101788.91;5016491;28;96839;-76
2021/09/20 11:01:27;;;;;;;;;;;;;;;20.70;37.88;101783.28;5011106;28;97120;-75
2021/09/20 11:03:59;;;;;;;;;;;;;;;20.45;38.46;101778.53;5005669;28;99219;-77
2021/09/20 11:06:26;;;;;;;;;;;;;;;20.65;38.41;101790.75;5015589;28;99288;-75
2021/09/20 11:09:11;;;;;;;;;;;;;;;20.54;38.70;101779.81;5010599;28;97458;-76
2021/09/20 11:11:41;;;;;;;;;;;;;;;20.10;39.13;101782.44;5012899;28;96969;-76
2021/09/20 11:14:09;;;;;;;;;;;;;;;20.74;37.76;101782.16;5013022;28;98901;-76
2021/09/20 11:16:48;;;;;;;;;;;;;;;20.79;38.04;101774.66;5008402;28;99193;-76
2021/09/20 11:19:38;;;;;;;;;;;;;;;20.48;38.43;101781.03;5015772;28;99145;-76
2021/09/20 11:22:25;;;;;;;;;;;;;;;20.62;38.43;101782.88;5010498;28;97056;-76
2021/09/20 11:24:53;;;;;;;;;;;;;;;20.63;38.45;101779.25;5009213;28;101387;-76
2021/09/20 11:27:28;;;;;;;;;;;;;;;21.02;37.69;101773.22;5012321;28;98128;-76
2021/09/20 11:29:55;;;;;;;;;;;;;;;20.50;38.34;101786.31;5009480;28;96955;-76
2021/09/20 11:32:22;;;;;;;;;;;;;;;20.74;37.63;101779.47;5016383;28;96900;-76
2021/09/20 11:34:52;;;;;;;;;;;;;;;20.17;38.09;101779.28;5013002;28;99442;-75
2021/09/20 11:37:20;;;;;;;;;;;;;;;20.38;37.99;101782.56;5011002;28;99138;-75
2021/09/20 11:39:48;;;;;;;;;;;;;;;20.24;38.20;101780.66;5015293;28;97261;-75
2021/09/20 11:42:16;;;;;;;;;;;;;;;20.56;38.32;101780.56;5008169;28;99161;-75
2021/09/20 11:44:48;;;;;;;;;;;;;;;20.72;37.77;101772.44;5015585;28;98915;-73
2021/09/20 11:47:15;;;;;;;;;;;;;;;20.09;38.18;101778.00;5011615;28;99216;-74
2021/09/20 11:49:42;;;;;;;;;;;;;;;20.34;38.05;101777.47;5015328;28;96786;-75
2021/09/20 11:52:10;;;;;;;;;;;;;;;20.28;38.46;101776.81;5010817;28;97014;-74
2021/09/20 11:54:37;;;;;;;;;;;;;;;20.14;38.02;101768.75;5007768;28;98831;-74
2021/09/20 11:57:16;;;;;;;;;;;;;;;20.20;38.26;101778.25;5008665;28;100985;-75
2021/09/20 11:59:43;;;;;;;;;;;;;;;20.02;38.17;101776.66;5008593;28;97723;-75
2021/09/20 12:02:09;;;;;;;;;;;;;;;20.33;37.66;101773.06;5013918;28;96833;-78
2021/09/20 12:04:46;;;;;;;;;;;;;;;20.35;37.23;101779.22;5009025;28;99440;-75
2021/09/20 12:07:25;;;;;;;;;;;;;;;20.36;37.45;101776.41;5007275;28;97800;-75
2021/09/20 12:09:51;;;;;;;;;;;;;;;20.47;37.70;101782.00;5007248;28;96993;-75
2021/09/20 12:12:19;;;;;;;;;;;;;;;21.31;35.69;101782.16;5007470;28;98607;-75
2021/09/20 12:14:54;;;;;;;;;;;;;;;21.04;36.79;101780.22;5009237;28;98801;-75
2021/09/20 12:17:20;;;;;;;;;;;;;;;21.38;36.74;101783.50;5011274;28;98653;-74
2021/09/20 12:19:50;;;;;;;;;;;;;;;21.12;37.65;101789.63;5006363;28;96967;-74
2021/09/20 12:22:17;;;;;;;;;;;;;;;21.24;37.31;101787.06;5008984;28;99274;-75
2021/09/20 12:24:43;;;;;;;;;;;;;;;21.63;36.22;101778.25;5012518;28;98857;-74
2021/09/20 12:27:09;;;;;;;;;;;;;;;21.56;36.13;101790.38;5014640;28;98794;-76
2021/09/20 12:29:37;;;;;;;;;;;;;;;20.77;36.95;101784.63;5006531;28;97387;-76
2021/09/20 12:32:05;;;;;;;;;;;;;;;21.33;35.61;101783.78;5008505;28;97603;-75
2021/09/20 12:34:33;;;;;;;;;;;;;;;21.46;35.71;101789.25;5011768;28;99186;-77
2021/09/20 12:39:40;;;;;;;;;;;;;;;21.84;34.48;101794.81;5175561;22;99296;-91